Time;durP1;ratioP1;P1;durP2;ratioP2;P2;SDS_P1;SDS_P2;PMS_P1;PMS_P2;Temp;Humidity;BMP_temperature;BMP_pressure;BME280_temperature;BME280_humidity;BME280_pressure;Samples;Min_cycle;Max_cycle;Signal;HPM_P1;HPM_P2
2023/03/26 00:02:00;;;;;;;1.52;1.42;;;10.20;92.80;;;;;;5059330;28;20234;-73
2023/03/26 00:04:28;;;;;;;1.40;1.40;;;10.10;92.50;;;;;;5060316;28;20195;-75
2023/03/26 00:06:56;;;;;;;1.25;1.25;;;10.10;92.80;;;;;;5063515;28;20214;-74
2023/03/26 00:09:22;;;;;;;1.33;1.33;;;10.10;92.90;;;;;;5060409;28;20800;-74
2023/03/26 00:11:50;;;;;;;1.33;1.33;;;10.10;92.90;;;;;;5064139;28;20228;-75
2023/03/26 00:14:16;;;;;;;1.10;1.10;;;10.10;93.00;;;;;;5064135;28;20209;-75
2023/03/26 00:16:46;;;;;;;0.95;0.95;;;10.00;93.10;;;;;;5063706;28;20828;-74
2023/03/26 00:19:14;;;;;;;1.30;1.30;;;9.90;93.30;;;;;;5060211;28;20227;-75
2023/03/26 00:21:42;;;;;;;1.50;1.50;;;9.90;93.50;;;;;;5062098;28;20225;-74
2023/03/26 00:24:13;;;;;;;1.25;1.25;;;9.80;93.50;;;;;;5071186;28;20212;-74
2023/03/26 00:26:40;;;;;;;1.48;1.48;;;9.80;93.60;;;;;;5067603;28;20206;-74
2023/03/26 00:29:09;;;;;;;1.15;1.15;;;9.80;93.70;;;;;;5065275;28;20313;-74
2023/03/26 00:31:38;;;;;;;1.25;1.25;;;9.70;93.50;;;;;;5064114;28;20198;-75
2023/03/26 00:34:05;;;;;;;1.15;1.15;;;9.70;93.60;;;;;;5058749;28;20309;-75
2023/03/26 00:36:34;;;;;;;1.45;1.45;;;9.70;93.70;;;;;;5060537;28;20202;-73
2023/03/26 00:39:04;;;;;;;1.27;1.27;;;9.70;93.70;;;;;;5060665;28;20222;-73
2023/03/26 00:41:31;;;;;;;1.30;1.30;;;9.70;93.60;;;;;;5063130;28;22929;-74
2023/03/26 00:43:59;;;;;;;1.50;1.40;;;9.50;93.70;;;;;;5063387;28;20260;-74
2023/03/26 00:46:28;;;;;;;1.33;1.33;;;9.40;94.00;;;;;;5059008;28;20214;-74
2023/03/26 00:48:57;;;;;;;1.40;1.40;;;9.40;94.30;;;;;;5062227;28;20221;-74
2023/03/26 00:51:24;;;;;;;1.33;1.33;;;9.40;94.40;;;;;;5059517;28;20216;-74
2023/03/26 00:53:51;;;;;;;1.33;1.33;;;9.40;94.40;;;;;;5059802;28;20198;-74
2023/03/26 00:56:19;;;;;;;1.65;1.63;;;9.40;94.50;;;;;;5057962;28;20281;-75
2023/03/26 00:58:48;;;;;;;1.35;1.35;;;9.40;94.60;;;;;;5064418;28;20218;-74
2023/03/26 01:01:19;;;;;;;1.45;1.35;;;9.50;94.50;;;;;;5061099;28;20194;-73
2023/03/26 01:03:46;;;;;;;1.33;1.33;;;9.50;94.30;;;;;;5060740;28;20706;-74
2023/03/26 01:06:18;;;;;;;1.38;1.38;;;9.50;94.20;;;;;;5063397;28;20210;-75
2023/03/26 01:08:47;;;;;;;0.98;0.98;;;9.50;94.20;;;;;;5059056;28;20305;-75
2023/03/26 01:11:18;;;;;;;1.10;1.10;;;9.50;93.90;;;;;;5061556;28;20207;-74
2023/03/26 01:13:49;;;;;;;1.42;1.42;;;9.50;93.90;;;;;;5058581;28;20206;-74
2023/03/26 01:16:22;;;;;;;1.27;1.27;;;9.40;93.90;;;;;;5062793;28;20252;-74
2023/03/26 01:18:51;;;;;;;1.42;1.42;;;9.40;94.20;;;;;;5062065;28;20249;-75
2023/03/26 01:21:22;;;;;;;1.33;1.33;;;9.40;94.40;;;;;;5062680;28;20202;-74
2023/03/26 01:24:00;;;;;;;1.17;1.17;;;9.40;94.40;;;;;;5077479;28;20229;-75
2023/03/26 01:26:53;;;;;;;1.30;1.20;;;9.40;94.60;;;;;;5066579;28;20282;-75
2023/03/26 01:29:26;;;;;;;1.50;1.50;;;9.40;94.60;;;;;;5064133;28;20218;-73
2023/03/26 01:32:03;;;;;;;1.48;1.48;;;9.40;94.70;;;;;;5059712;28;20252;-74
2023/03/26 01:34:41;;;;;;;1.40;1.40;;;9.40;94.70;;;;;;5067062;28;20241;-74
2023/03/26 01:37:19;;;;;;;1.50;1.50;;;9.40;94.80;;;;;;5063527;28;20201;-73
2023/03/26 01:39:55;;;;;;;1.63;1.63;;;9.40;94.70;;;;;;5068399;28;20214;-73
2023/03/26 01:42:31;;;;;;;1.42;1.40;;;9.40;94.30;;;;;;5065355;28;20204;-75
2023/03/26 01:45:03;;;;;;;1.50;1.50;;;9.40;94.30;;;;;;5066943;28;20205;-75
2023/03/26 01:47:31;;;;;;;1.45;1.45;;;9.40;94.50;;;;;;5085035;28;20502;-75
2023/03/26 01:49:58;;;;;;;1.67;1.67;;;9.30;94.50;;;;;;5084067;28;21140;-75
2023/03/26 01:52:25;;;;;;;1.30;1.30;;;9.30;94.60;;;;;;5065548;28;20202;-74
2023/03/26 01:54:55;;;;;;;1.10;1.10;;;9.20;94.70;;;;;;5065697;28;20228;-74
2023/03/26 01:57:34;;;;;;;1.67;1.60;;;9.10;94.90;;;;;;5060438;28;20229;-74
2023/03/26 02:00:13;;;;;;;1.10;1.10;;;9.00;95.10;;;;;;5064889;28;20233;-74
2023/03/26 02:02:53;;;;;;;1.73;1.73;;;8.90;95.30;;;;;;5065783;28;20194;-74
2023/03/26 02:05:25;;;;;;;1.77;1.70;;;8.80;95.30;;;;;;5063532;28;20194;-74
2023/03/26 02:07:59;;;;;;;1.77;1.67;;;8.60;95.60;;;;;;5061312;28;20220;-73
2023/03/26 02:10:30;;;;;;;1.70;1.60;;;8.60;95.90;;;;;;5069438;28;20229;-74
2023/03/26 02:12:59;;;;;;;1.73;1.70;;;8.60;96.00;;;;;;5064576;28;20206;-74
2023/03/26 02:15:25;;;;;;;1.60;1.60;;;8.60;96.00;;;;;;5059159;28;20293;-74
2023/03/26 02:17:53;;;;;;;1.73;1.70;;;8.60;96.10;;;;;;5058633;28;20206;-74
2023/03/26 02:20:21;;;;;;;1.88;1.80;;;8.60;96.20;;;;;;5065614;28;20219;-74
2023/03/26 02:22:48;;;;;;;1.50;1.50;;;8.50;96.20;;;;;;5076295;28;20199;-75
2023/03/26 02:25:17;;;;;;;1.73;1.63;;;8.60;96.40;;;;;;5062547;28;20293;-74
2023/03/26 02:27:46;;;;;;;1.23;1.23;;;8.50;96.30;;;;;;5064275;28;20634;-73
2023/03/26 02:30:16;;;;;;;1.55;1.55;;;8.60;96.30;;;;;;5065403;28;20219;-74
2023/03/26 02:32:43;;;;;;;1.67;1.67;;;8.60;96.30;;;;;;5062249;28;20660;-74
2023/03/26 02:35:11;;;;;;;1.85;1.75;;;8.60;96.30;;;;;;5063311;28;20285;-75
2023/03/26 02:37:38;;;;;;;1.38;1.38;;;8.60;96.30;;;;;;5066459;28;20681;-74
2023/03/26 02:40:10;;;;;;;1.65;1.65;;;8.50;96.00;;;;;;5059766;28;20226;-75
2023/03/26 02:42:37;;;;;;;1.38;1.38;;;8.60;96.50;;;;;;5055503;28;20205;-74
2023/03/26 02:45:07;;;;;;;1.70;1.70;;;8.60;96.30;;;;;;5065284;28;20305;-74
2023/03/26 02:47:34;;;;;;;2.00;1.90;;;8.70;96.20;;;;;;5063281;28;20306;-74
2023/03/26 02:50:02;;;;;;;1.83;1.73;;;8.70;96.10;;;;;;5057542;28;20631;-74
2023/03/26 02:52:30;;;;;;;1.52;1.52;;;8.70;96.10;;;;;;5064340;28;20664;-74
2023/03/26 02:54:57;;;;;;;1.77;1.73;;;8.70;96.20;;;;;;5058277;28;20272;-74
2023/03/26 02:57:25;;;;;;;1.80;1.70;;;8.70;96.20;;;;;;5057948;28;20256;-74
2023/03/26 02:59:52;;;;;;;1.55;1.45;;;8.70;96.20;;;;;;5064568;28;20787;-74
2023/03/26 03:02:23;;;;;;;1.20;1.20;;;8.80;96.30;;;;;;5061984;28;20194;-74
2023/03/26 03:04:50;;;;;;;1.88;1.77;;;8.80;96.60;;;;;;5058506;28;20672;-74
2023/03/26 03:07:17;;;;;;;1.30;1.20;;;8.80;96.80;;;;;;5064992;28;20222;-75
2023/03/26 03:09:44;;;;;;;1.30;1.30;;;8.80;97.00;;;;;;5057806;28;20254;-75
2023/03/26 03:12:11;;;;;;;2.00;1.90;;;8.80;97.30;;;;;;5063418;28;20190;-74
2023/03/26 03:14:39;;;;;;;1.85;1.75;;;8.70;97.00;;;;;;5062833;28;20245;-74
2023/03/26 03:17:06;;;;;;;1.77;1.67;;;8.70;96.80;;;;;;5064885;28;20220;-74
2023/03/26 03:19:36;;;;;;;2.05;1.90;;;8.60;96.80;;;;;;5067941;28;20407;-74
2023/03/26 03:22:03;;;;;;;1.73;1.73;;;8.60;96.90;;;;;;5067833;28;20289;-75
2023/03/26 03:24:32;;;;;;;2.10;2.00;;;8.50;97.10;;;;;;5066148;28;20287;-74
2023/03/26 03:26:59;;;;;;;1.50;1.50;;;8.50;97.40;;;;;;5064953;28;20220;-74
2023/03/26 03:29:27;;;;;;;1.70;1.60;;;8.40;97.60;;;;;;5065172;28;20325;-74
2023/03/26 03:31:54;;;;;;;1.60;1.60;;;8.40;97.70;;;;;;5060405;28;20201;-74
2023/03/26 03:34:22;;;;;;;1.63;1.63;;;8.30;97.90;;;;;;5059326;28;20204;-74
2023/03/26 03:36:50;;;;;;;1.55;1.55;;;8.30;98.00;;;;;;5057836;28;20635;-74
2023/03/26 03:39:17;;;;;;;1.70;1.60;;;8.30;98.00;;;;;;5065667;28;20926;-74
2023/03/26 03:41:44;;;;;;;1.70;1.60;;;8.30;98.20;;;;;;5063167;28;20341;-73
2023/03/26 03:44:11;;;;;;;1.50;1.50;;;8.20;98.20;;;;;;5062454;28;20226;-75
2023/03/26 03:46:38;;;;;;;1.50;1.50;;;8.20;98.20;;;;;;5063348;28;20240;-74
2023/03/26 03:49:05;;;;;;;1.70;1.70;;;8.20;98.40;;;;;;5060795;28;20939;-74
2023/03/26 03:51:32;;;;;;;1.42;1.42;;;8.20;98.30;;;;;;5055355;28;20234;-74
2023/03/26 03:54:00;;;;;;;1.40;1.35;;;8.20;98.30;;;;;;5057171;28;20249;-74
2023/03/26 03:56:27;;;;;;;1.67;1.63;;;8.20;98.10;;;;;;5061734;28;20277;-75
2023/03/26 03:58:57;;;;;;;1.70;1.70;;;8.20;98.10;;;;;;5062395;28;20275;-75
2023/03/26 04:01:24;;;;;;;1.83;1.75;;;8.20;98.10;;;;;;5058397;28;20669;-74
2023/03/26 04:03:51;;;;;;;1.70;1.65;;;8.10;98.10;;;;;;5058641;28;20195;-75
2023/03/26 04:06:18;;;;;;;1.75;1.65;;;8.10;98.10;;;;;;5062474;28;20199;-74
2023/03/26 04:08:45;;;;;;;1.73;1.63;;;8.00;98.30;;;;;;5059788;28;20584;-73
2023/03/26 04:11:14;;;;;;;1.80;1.70;;;8.00;98.50;;;;;;5058482;28;20200;-74
2023/03/26 04:13:41;;;;;;;1.70;1.70;;;7.90;98.60;;;;;;5062323;28;20282;-74
2023/03/26 04:16:09;;;;;;;1.40;1.40;;;7.90;99.00;;;;;;5062218;28;20206;-74
2023/03/26 04:18:36;;;;;;;1.90;1.80;;;7.90;98.50;;;;;;5071805;28;20219;-75
2023/03/26 04:21:04;;;;;;;1.60;1.60;;;7.80;99.00;;;;;;5064386;28;20209;-74
2023/03/26 04:23:31;;;;;;;1.67;1.67;;;7.70;99.50;;;;;;5061347;28;20225;-75
2023/03/26 04:26:02;;;;;;;1.63;1.63;;;7.50;99.70;;;;;;5062315;28;20727;-74
2023/03/26 04:28:34;;;;;;;1.88;1.80;;;7.40;99.60;;;;;;5062633;28;20214;-75
2023/03/26 04:31:03;;;;;;;2.00;1.90;;;7.40;99.70;;;;;;5061734;28;20290;-75
2023/03/26 04:33:32;;;;;;;2.03;1.90;;;7.40;99.60;;;;;;5062656;28;20221;-74
2023/03/26 04:36:01;;;;;;;2.10;2.00;;;7.40;99.70;;;;;;5082351;28;20272;-76
2023/03/26 04:38:32;;;;;;;1.60;1.60;;;7.40;99.60;;;;;;5082748;28;20186;-75
2023/03/26 04:40:59;;;;;;;2.00;1.90;;;7.40;99.50;;;;;;5061540;28;20267;-74
2023/03/26 04:43:27;;;;;;;1.98;1.88;;;7.50;99.50;;;;;;5059653;28;20260;-74
2023/03/26 04:45:55;;;;;;;2.00;1.90;;;7.50;99.60;;;;;;5064182;28;20203;-75
2023/03/26 04:48:23;;;;;;;1.42;1.42;;;7.50;99.80;;;;;;5060410;28;20222;-74
2023/03/26 04:50:50;;;;;;;1.60;1.60;;;7.40;99.90;;;;;;5066217;28;20233;-74
2023/03/26 04:53:20;;;;;;;1.75;1.75;;;7.40;99.80;;;;;;5059360;28;20959;-74
2023/03/26 04:55:53;;;;;;;1.75;1.75;;;7.40;99.80;;;;;;5064624;28;20578;-74
2023/03/26 04:58:20;;;;;;;1.83;1.83;;;7.40;99.80;;;;;;5065763;28;20190;-73
2023/03/26 05:00:48;;;;;;;1.52;1.52;;;7.40;99.70;;;;;;5063392;28;20194;-75
2023/03/26 05:03:19;;;;;;;1.75;1.65;;;7.40;99.90;;;;;;5063622;28;20376;-74
2023/03/26 05:05:48;;;;;;;1.90;1.80;;;7.40;99.90;;;;;;5073519;28;20198;-75
2023/03/26 05:08:15;;;;;;;2.30;2.20;;;7.30;99.90;;;;;;5066251;28;20748;-74
2023/03/26 05:10:42;;;;;;;1.73;1.70;;;7.30;99.90;;;;;;5063275;28;20214;-74
2023/03/26 05:13:09;;;;;;;2.08;1.98;;;7.20;99.90;;;;;;5063799;28;20202;-74
2023/03/26 05:15:36;;;;;;;1.83;1.80;;;7.20;99.90;;;;;;5064985;28;21378;-74
2023/03/26 05:18:04;;;;;;;1.92;1.83;;;7.20;99.90;;;;;;5075856;28;20202;-75
2023/03/26 05:20:32;;;;;;;1.92;1.83;;;7.20;99.90;;;;;;5062390;28;20249;-75
2023/03/26 05:22:59;;;;;;;1.85;1.75;;;7.20;99.90;;;;;;5063018;28;20256;-74
2023/03/26 05:25:26;;;;;;;1.52;1.52;;;7.30;99.90;;;;;;5063600;28;20205;-74
2023/03/26 05:27:53;;;;;;;1.83;1.73;;;7.30;99.90;;;;;;5068245;28;20276;-75
2023/03/26 05:30:21;;;;;;;1.80;1.70;;;7.20;99.90;;;;;;5062885;28;20280;-74
2023/03/26 05:32:50;;;;;;;1.95;1.85;;;7.30;99.90;;;;;;5061825;28;20708;-75
2023/03/26 05:35:18;;;;;;;1.88;1.80;;;7.30;99.90;;;;;;5065017;28;20213;-75
2023/03/26 05:37:48;;;;;;;1.63;1.63;;;7.20;99.90;;;;;;5069954;28;20222;-75
2023/03/26 05:40:15;;;;;;;1.65;1.55;;;7.30;99.90;;;;;;5064472;28;20246;-74
2023/03/26 05:42:43;;;;;;;1.60;1.60;;;7.30;99.90;;;;;;5062902;28;20196;-74
2023/03/26 05:45:12;;;;;;;2.10;2.00;;;7.30;99.90;;;;;;5063474;28;20301;-75
2023/03/26 05:47:39;;;;;;;1.58;1.58;;;7.30;99.90;;;;;;5066092;28;20258;-75
2023/03/26 05:50:08;;;;;;;1.92;1.83;;;7.30;99.90;;;;;;5061536;28;20272;-74
2023/03/26 05:52:35;;;;;;;2.10;2.00;;;7.70;99.90;;;;;;5063821;28;20202;-74
2023/03/26 05:55:05;;;;;;;1.33;1.33;;;8.20;99.90;;;;;;5065550;28;21796;-74
2023/03/26 05:57:34;;;;;;;1.67;1.58;;;8.70;99.90;;;;;;5065632;28;20575;-79
2023/03/26 06:00:01;;;;;;;1.95;1.85;;;9.30;99.90;;;;;;5059668;28;20288;-75
2023/03/26 06:02:29;;;;;;;1.90;1.80;;;9.90;99.90;;;;;;5064661;28;20874;-75
2023/03/26 06:04:56;;;;;;;1.70;1.70;;;10.40;99.70;;;;;;5065521;28;20236;-74
2023/03/26 06:07:23;;;;;;;1.83;1.73;;;10.90;99.30;;;;;;5063846;28;20222;-75
2023/03/26 06:09:50;;;;;;;1.83;1.73;;;11.30;99.90;;;;;;5063291;28;20272;-74
2023/03/26 06:12:19;;;;;;;1.95;1.85;;;11.90;99.90;;;;;;5064269;28;20202;-73
2023/03/26 06:14:46;;;;;;;1.80;1.70;;;12.40;99.90;;;;;;5066943;28;20206;-76
2023/03/26 06:17:13;;;;;;;1.85;1.70;;;12.70;98.90;;;;;;5075598;28;20201;-75
2023/03/26 06:19:40;;;;;;;1.63;1.52;;;12.80;97.80;;;;;;5061340;28;21122;-76
2023/03/26 06:22:07;;;;;;;1.92;1.83;;;12.80;97.20;;;;;;5062368;28;20230;-79
2023/03/26 06:24:34;;;;;;;2.03;1.92;;;12.80;97.00;;;;;;5059118;28;20244;-74
2023/03/26 06:27:01;;;;;;;1.73;1.63;;;12.80;96.80;;;;;;5064631;28;20285;-75
2023/03/26 06:29:30;;;;;;;1.50;1.50;;;13.00;96.60;;;;;;5063257;28;20304;-75
2023/03/26 06:31:56;;;;;;;1.80;1.70;;;13.20;96.40;;;;;;5057397;28;20194;-74
2023/03/26 06:34:23;;;;;;;2.00;1.58;;;13.40;96.20;;;;;;5059086;28;20222;-75
2023/03/26 06:36:51;;;;;;;1.20;1.20;;;13.40;96.00;;;;;;5059888;28;20852;-75
2023/03/26 06:39:19;;;;;;;2.53;1.73;;;13.50;96.10;;;;;;5059914;28;20229;-76
2023/03/26 06:41:46;;;;;;;1.30;1.20;;;13.40;95.70;;;;;;5055348;28;20221;-75
2023/03/26 06:44:13;;;;;;;1.70;1.60;;;13.40;95.70;;;;;;5058361;28;21248;-76
2023/03/26 06:46:41;;;;;;;1.30;1.30;;;13.10;95.40;;;;;;5057180;28;20206;-75
2023/03/26 06:49:08;;;;;;;1.48;1.48;;;12.90;95.30;;;;;;5059368;28;20310;-75
2023/03/26 06:51:37;;;;;;;1.30;1.30;;;12.90;95.70;;;;;;5057799;28;20203;-74
2023/03/26 06:54:04;;;;;;;1.70;1.60;;;12.90;96.00;;;;;;5064390;28;20217;-75
2023/03/26 06:56:31;;;;;;;1.52;1.50;;;13.30;96.60;;;;;;5062531;28;20245;-75
2023/03/26 06:58:58;;;;;;;1.40;1.30;;;13.20;96.50;;;;;;5057940;28;20250;-75
2023/03/26 07:01:25;;;;;;;1.70;1.60;;;13.30;95.90;;;;;;5059729;28;20259;-76
2023/03/26 07:03:53;;;;;;;1.48;1.38;;;13.50;96.00;;;;;;5067690;28;20293;-75
2023/03/26 07:06:20;;;;;;;2.30;1.70;;;13.90;95.70;;;;;;5061611;28;20312;-74
2023/03/26 07:08:47;;;;;;;1.50;1.40;;;14.20;94.90;;;;;;5057874;28;20591;-75
2023/03/26 07:11:15;;;;;;;1.40;1.40;;;14.50;94.80;;;;;;5062160;28;20245;-75
2023/03/26 07:13:43;;;;;;;1.17;1.08;;;14.90;94.50;;;;;;5070908;28;20251;-76
2023/03/26 07:16:10;;;;;;;1.70;1.60;;;15.30;94.00;;;;;;5068798;28;20190;-76
2023/03/26 07:18:37;;;;;;;1.70;1.60;;;15.30;93.40;;;;;;5060258;28;20218;-75
2023/03/26 07:21:07;;;;;;;1.60;1.50;;;15.50;92.70;;;;;;5065838;28;20206;-75
2023/03/26 07:23:34;;;;;;;1.67;1.38;;;15.40;93.80;;;;;;5057693;28;20226;-75
2023/03/26 07:26:10;;;;;;;1.60;1.50;;;15.30;92.80;;;;;;5063248;28;20226;-76
2023/03/26 07:28:42;;;;;;;1.73;1.63;;;15.20;93.10;;;;;;5089311;28;20210;-76
2023/03/26 07:31:20;;;;;;;1.83;1.70;;;15.20;94.30;;;;;;5081548;28;20224;-76
2023/03/26 07:33:56;;;;;;;2.95;1.40;;;15.20;94.30;;;;;;5063844;28;20232;-75
2023/03/26 07:36:31;;;;;;;1.70;1.60;;;15.40;94.20;;;;;;5063430;28;20202;-75
2023/03/26 07:39:21;;;;;;;1.70;1.60;;;15.50;95.20;;;;;;5063911;28;20225;-76
2023/03/26 07:41:50;;;;;;;1.70;1.60;;;15.60;94.60;;;;;;5059600;28;20229;-75
2023/03/26 07:44:38;;;;;;;1.40;1.30;;;15.60;94.30;;;;;;5065756;28;20217;-76
2023/03/26 07:47:17;;;;;;;1.40;1.30;;;15.60;93.80;;;;;;5057619;28;20265;-76
2023/03/26 07:49:44;;;;;;;1.63;1.52;;;15.80;94.00;;;;;;5059537;28;20230;-75
2023/03/26 07:52:13;;;;;;;1.70;1.60;;;15.70;94.30;;;;;;5063431;28;20225;-75
2023/03/26 07:54:41;;;;;;;1.52;1.42;;;15.80;94.00;;;;;;5060241;28;20288;-75
2023/03/26 07:57:16;;;;;;;1.70;1.60;;;16.10;93.60;;;;;;5057573;28;20275;-75
2023/03/26 07:59:48;;;;;;;1.67;1.58;;;16.50;92.70;;;;;;5058381;28;20213;-75
2023/03/26 08:02:42;;;;;;;1.60;1.50;;;16.60;92.30;;;;;;5059339;28;20733;-76
2023/03/26 08:05:19;;;;;;;1.17;1.17;;;16.80;91.80;;;;;;5058525;28;20708;-76
2023/03/26 08:08:03;;;;;;;1.70;1.45;;;16.50;92.10;;;;;;5061592;28;20235;-75
2023/03/26 08:10:38;;;;;;;1.30;1.20;;;16.20;92.10;;;;;;5056997;28;20244;-75
2023/03/26 08:15:46;;;;;;;1.30;1.20;;;15.90;89.90;;;;;;5086242;27;20278;-71
2023/03/26 08:18:27;;;;;;;1.20;1.20;;;16.00;91.60;;;;;;5073253;28;20250;-72
2023/03/26 08:20:59;;;;;;;1.42;1.33;;;15.80;92.00;;;;;;5046324;28;20289;-73
2023/03/26 08:23:33;;;;;;;1.23;1.23;;;15.70;92.20;;;;;;5047851;28;20226;-72
2023/03/26 08:26:08;;;;;;;1.35;1.27;;;15.70;92.20;;;;;;5051543;28;20201;-73
2023/03/26 08:28:54;;;;;;;1.50;1.40;;;16.00;92.20;;;;;;5048013;28;20270;-73
2023/03/26 08:31:28;;;;;;;1.70;1.60;;;16.00;91.50;;;;;;5054668;28;20193;-73
2023/03/26 08:33:55;;;;;;;1.60;1.50;;;16.30;91.50;;;;;;5051167;28;21184;-73
2023/03/26 08:36:22;;;;;;;1.40;1.30;;;16.10;91.30;;;;;;5055535;28;20211;-73
2023/03/26 08:38:51;;;;;;;1.50;1.45;;;15.70;91.40;;;;;;5052784;28;20334;-72
2023/03/26 08:42:06;;;;;;;1.55;1.45;;;15.50;92.20;;;;;;5052917;28;20206;-73
2023/03/26 08:45:15;;;;;;;1.20;1.10;;;15.50;92.90;;;;;;5007271;28;20287;-73
2023/03/26 08:48:27;;;;;;;1.00;1.00;;;15.80;91.50;;;;;;5053072;28;20285;-73
2023/03/26 08:51:27;;;;;;;1.23;1.17;;;16.20;92.60;;;;;;5054610;28;20725;-73
2023/03/26 08:54:48;;;;;;;1.85;1.60;;;16.10;90.80;;;;;;5050362;28;20638;-73
2023/03/26 08:57:43;;;;;;;1.42;1.40;;;15.90;91.90;;;;;;4986802;28;20317;-73
2023/03/26 09:00:31;;;;;;;1.83;1.20;;;15.90;91.70;;;;;;5052210;28;20318;-73
2023/03/26 09:03:10;;;;;;;1.20;1.20;;;15.10;92.40;;;;;;5050523;28;20210;-72
2023/03/26 09:06:30;;;;;;;3.75;1.40;;;15.00;92.90;;;;;;5053032;28;20684;-72
2023/03/26 09:09:26;;;;;;;1.60;1.50;;;15.30;93.30;;;;;;5018390;28;20230;-75
2023/03/26 09:12:18;;;;;;;3.22;1.35;;;16.10;92.90;;;;;;5064145;28;20259;-73
2023/03/26 09:15:21;;;;;;;1.40;1.30;;;16.60;91.50;;;;;;5052551;28;20321;-73
2023/03/26 09:18:24;;;;;;;1.33;1.33;;;16.70;91.50;;;;;;5053374;28;20203;-74
2023/03/26 09:21:20;;;;;;;1.50;1.40;;;16.80;90.90;;;;;;5022043;28;20206;-73
2023/03/26 09:24:26;;;;;;;2.78;1.40;;;17.10;91.40;;;;;;5049456;28;20643;-74
2023/03/26 09:27:06;;;;;;;1.48;1.38;;;17.40;90.10;;;;;;5006041;28;20241;-75
2023/03/26 09:30:09;;;;;;;1.40;1.30;;;17.20;90.50;;;;;;5041442;28;20250;-75
2023/03/26 09:33:10;;;;;;;1.42;1.33;;;17.20;90.10;;;;;;5045248;28;21092;-75
2023/03/26 09:35:52;;;;;;;1.13;1.13;;;17.30;88.50;;;;;;5041316;28;20213;-75
2023/03/26 09:38:41;;;;;;;1.40;1.40;;;17.20;89.40;;;;;;5038812;28;21405;-75
2023/03/26 09:41:15;;;;;;;1.40;1.30;;;16.90;87.10;;;;;;5041650;28;20239;-74
2023/03/26 09:44:11;;;;;;;1.20;1.20;;;17.10;89.10;;;;;;5044229;28;20203;-74
2023/03/26 09:46:44;;;;;;;1.00;1.00;;;17.60;88.20;;;;;;5033321;28;20692;-74
2023/03/26 09:49:43;;;;;;;1.20;1.20;;;18.10;88.20;;;;;;5041667;28;20246;-74
2023/03/26 09:52:42;;;;;;;1.20;1.10;;;18.30;84.00;;;;;;5037846;28;20765;-73
2023/03/26 09:55:42;;;;;;;1.40;1.30;;;18.40;83.60;;;;;;5038216;28;20227;-74
2023/03/26 09:58:47;;;;;;;1.63;1.52;;;18.60;84.90;;;;;;5039631;28;20938;-74
2023/03/26 10:01:20;;;;;;;2.92;1.70;;;18.60;82.70;;;;;;5037259;28;20223;-75
2023/03/26 10:03:57;;;;;;;1.20;1.20;;;18.70;85.20;;;;;;5035280;28;20222;-74
2023/03/26 10:06:37;;;;;;;1.30;1.30;;;18.90;85.60;;;;;;5040467;28;20203;-73
2023/03/26 10:09:20;;;;;;;1.45;1.35;;;18.90;86.40;;;;;;5057132;28;20333;-74
2023/03/26 10:12:22;;;;;;;1.45;1.35;;;18.80;83.40;;;;;;5042352;28;20635;-74
2023/03/26 10:14:56;;;;;;;1.45;1.35;;;18.80;82.20;;;;;;5007150;28;20227;-74
2023/03/26 10:17:39;;;;;;;1.50;1.40;;;18.90;84.10;;;;;;5037102;28;20235;-74
2023/03/26 10:20:26;;;;;;;1.23;1.23;;;19.20;81.30;;;;;;5042412;28;20223;-74
2023/03/26 10:23:07;;;;;;;1.33;1.23;;;19.00;81.90;;;;;;5040615;28;20234;-74
2023/03/26 10:25:49;;;;;;;1.30;1.20;;;18.90;85.20;;;;;;5037387;28;20257;-72
2023/03/26 10:28:35;;;;;;;1.58;1.48;;;19.10;85.40;;;;;;5040762;28;20311;-74
2023/03/26 10:31:25;;;;;;;1.33;1.25;;;19.20;84.60;;;;;;5037914;28;20202;-74
2023/03/26 10:34:04;;;;;;;1.40;1.30;;;19.40;84.40;;;;;;5042836;28;20206;-75
2023/03/26 10:36:34;;;;;;;1.40;1.30;;;19.60;83.30;;;;;;5060856;28;20302;-74
2023/03/26 10:39:36;;;;;;;1.20;1.20;;;19.30;82.30;;;;;;5059869;28;20219;-74
2023/03/26 10:42:21;;;;;;;1.20;1.15;;;18.70;80.60;;;;;;5047054;28;20676;-74
2023/03/26 10:45:12;;;;;;;1.60;1.50;;;18.10;84.30;;;;;;5042658;28;20207;-75
2023/03/26 10:48:02;;;;;;;1.30;1.30;;;17.60;84.40;;;;;;5039365;28;20235;-75
2023/03/26 10:50:43;;;;;;;1.73;1.63;;;17.40;85.90;;;;;;5039466;28;20231;-75
2023/03/26 10:53:18;;;;;;;1.30;1.20;;;17.10;86.60;;;;;;5038998;28;20203;-75
2023/03/26 10:55:52;;;;;;;2.25;1.60;;;16.80;87.30;;;;;;5040952;28;20315;-74
2023/03/26 10:58:24;;;;;;;1.40;1.30;;;16.30;88.40;;;;;;5042591;28;20223;-74
2023/03/26 11:00:58;;;;;;;1.52;1.42;;;16.10;89.80;;;;;;5044967;28;20203;-74
2023/03/26 11:03:50;;;;;;;1.65;1.40;;;16.10;90.00;;;;;;5042617;28;20229;-74
2023/03/26 11:06:31;;;;;;;1.77;1.30;;;16.10;90.00;;;;;;5051716;28;20203;-74
2023/03/26 11:09:07;;;;;;;1.15;1.15;;;16.30;90.50;;;;;;5047510;28;20235;-75
2023/03/26 11:11:43;;;;;;;1.30;1.30;;;16.60;90.20;;;;;;5040011;28;20207;-75
2023/03/26 11:14:16;;;;;;;1.65;1.55;;;16.90;89.90;;;;;;5034432;28;20234;-75
2023/03/26 11:16:58;;;;;;;1.40;1.30;;;17.10;89.10;;;;;;5039655;28;21058;-75
2023/03/26 11:19:31;;;;;;;1.65;1.55;;;17.00;88.40;;;;;;5041213;28;20258;-74
2023/03/26 11:22:04;;;;;;;3.03;1.90;;;17.00;87.70;;;;;;5036735;28;20242;-74
2023/03/26 11:24:54;;;;;;;1.58;1.48;;;16.70;87.90;;;;;;5041074;28;20200;-75
2023/03/26 11:27:31;;;;;;;1.70;1.60;;;16.40;87.90;;;;;;5041319;28;20199;-74
2023/03/26 11:30:11;;;;;;;2.28;1.55;;;16.40;88.90;;;;;;5037955;28;20369;-74
2023/03/26 11:32:42;;;;;;;1.90;1.80;;;16.30;87.50;;;;;;5038509;28;20203;-73
2023/03/26 11:35:19;;;;;;;1.80;1.70;;;16.20;89.40;;;;;;5039433;28;20310;-74
2023/03/26 11:37:51;;;;;;;1.73;1.63;;;16.50;89.70;;;;;;5039955;28;20295;-75
2023/03/26 11:40:23;;;;;;;1.58;1.48;;;16.90;89.80;;;;;;5039061;28;20240;-74
2023/03/26 11:42:53;;;;;;;1.70;1.60;;;17.30;89.30;;;;;;5040727;28;20230;-75
2023/03/26 11:45:24;;;;;;;1.60;1.50;;;17.30;89.40;;;;;;5040732;28;20281;-74
2023/03/26 11:47:54;;;;;;;1.73;1.63;;;17.20;88.60;;;;;;5042404;28;20214;-75
2023/03/26 11:50:25;;;;;;;1.73;1.63;;;17.10;88.90;;;;;;5039047;28;20215;-75
2023/03/26 11:52:53;;;;;;;1.85;1.75;;;17.10;89.30;;;;;;5041485;28;20866;-75
2023/03/26 11:55:22;;;;;;;1.65;1.55;;;17.00;89.00;;;;;;5040727;28;20356;-74
2023/03/26 11:57:55;;;;;;;1.75;1.65;;;16.80;89.50;;;;;;5043956;28;20203;-74
2023/03/26 12:00:26;;;;;;;1.45;1.38;;;16.60;89.90;;;;;;5044512;28;20241;-74
2023/03/26 12:02:57;;;;;;;2.00;1.90;;;16.40;90.40;;;;;;5051960;28;20252;-74
2023/03/26 12:05:28;;;;;;;1.75;1.55;;;16.20;90.80;;;;;;5062088;28;20183;-74
2023/03/26 12:07:56;;;;;;;2.50;1.90;;;16.10;90.80;;;;;;5047234;28;20712;-74
2023/03/26 12:10:30;;;;;;;2.65;1.80;;;15.70;90.70;;;;;;5043377;28;20219;-75
2023/03/26 12:13:00;;;;;;;1.98;1.88;;;15.70;91.30;;;;;;5042653;28;20757;-74
2023/03/26 12:15:30;;;;;;;1.70;1.60;;;15.80;91.40;;;;;;5045860;28;20251;-74
2023/03/26 12:18:17;;;;;;;1.70;1.60;;;15.90;91.60;;;;;;5044385;28;20199;-75
2023/03/26 12:20:44;;;;;;;3.13;1.75;;;16.00;91.50;;;;;;5045141;28;20254;-72
2023/03/26 12:23:38;;;;;;;2.78;2.58;;;16.10;91.70;;;;;;5043196;28;20206;-72
2023/03/26 12:26:13;;;;;;;2.70;2.50;;;16.00;91.40;;;;;;5049292;28;20290;-75
2023/03/26 12:28:45;;;;;;;2.65;2.15;;;16.00;91.50;;;;;;5040911;28;20207;-73
2023/03/26 12:31:17;;;;;;;4.57;2.78;;;16.00;91.40;;;;;;5040420;28;20199;-73
2023/03/26 12:34:03;;;;;;;3.00;2.70;;;16.00;91.40;;;;;;5040176;28;20214;-74
2023/03/26 12:36:32;;;;;;;3.63;3.33;;;16.20;91.00;;;;;;5042020;28;20232;-75
2023/03/26 12:38:59;;;;;;;3.60;3.30;;;16.20;90.90;;;;;;5036468;28;20227;-74
2023/03/26 12:41:35;;;;;;;3.28;3.03;;;16.10;91.10;;;;;;5041093;28;20234;-74
2023/03/26 12:44:22;;;;;;;7.00;4.20;;;16.00;91.50;;;;;;5040038;28;20202;-72
2023/03/26 12:46:52;;;;;;;5.30;4.80;;;15.80;91.60;;;;;;5038679;28;20756;-74
2023/03/26 12:49:21;;;;;;;5.05;4.65;;;15.70;91.90;;;;;;5037559;28;20222;-73
2023/03/26 12:51:51;;;;;;;5.22;4.72;;;15.80;92.10;;;;;;5040384;28;20306;-73
2023/03/26 12:54:44;;;;;;;6.10;4.93;;;15.90;92.20;;;;;;5041207;28;20219;-74
2023/03/26 12:57:20;;;;;;;6.00;4.45;;;15.90;92.20;;;;;;5033643;28;20199;-74
2023/03/26 12:59:58;;;;;;;5.38;4.88;;;15.70;92.70;;;;;;5037567;28;20592;-74
2023/03/26 13:02:49;;;;;;;5.45;4.97;;;15.60;92.90;;;;;;5051787;28;20198;-75
2023/03/26 13:05:33;;;;;;;4.38;3.97;;;15.70;92.90;;;;;;5042481;28;20199;-74
2023/03/26 13:08:19;;;;;;;4.68;4.15;;;15.70;93.50;;;;;;5045272;28;20195;-74
2023/03/26 13:10:53;;;;;;;5.72;4.97;;;15.90;93.70;;;;;;5043163;28;20223;-73
2023/03/26 13:13:47;;;;;;;5.15;4.65;;;16.10;93.70;;;;;;5039919;28;20222;-75
2023/03/26 13:16:21;;;;;;;6.35;5.85;;;16.30;93.40;;;;;;5042008;28;20751;-75
2023/03/26 13:18:55;;;;;;;5.13;4.50;;;16.20;93.50;;;;;;5040042;28;20229;-74
2023/03/26 13:21:32;;;;;;;6.65;4.72;;;16.20;93.90;;;;;;5041868;28;20202;-73
2023/03/26 13:24:09;;;;;;;5.22;4.72;;;16.30;94.10;;;;;;5042248;28;20686;-73
2023/03/26 13:26:50;;;;;;;4.60;4.20;;;16.30;94.00;;;;;;5040819;28;20207;-73
2023/03/26 13:29:24;;;;;;;4.43;4.03;;;16.30;94.70;;;;;;5043508;28;20798;-75